createdAt,value
2023-01-19T00:00:41.769Z,25.30
2023-01-19T00:03:16.318Z,34.90
2023-01-19T00:05:44.239Z,31.50
2023-01-19T00:08:17.796Z,30.80
2023-01-19T00:10:47.167Z,25.70
2023-01-19T00:13:15.207Z,45.00
2023-01-19T00:15:42.626Z,32.20
2023-01-19T00:18:11.132Z,30.30
2023-01-19T00:20:39.955Z,30.10
2023-01-19T00:23:08.584Z,34.50
2023-01-19T00:25:42.916Z,30.00
2023-01-19T00:28:14.645Z,29.60
2023-01-19T00:30:42.344Z,32.90
2023-01-19T00:33:10.095Z,35.10
2023-01-19T00:35:37.007Z,26.40
2023-01-19T00:38:03.904Z,28.30
2023-01-19T00:40:31.103Z,28.50
2023-01-19T00:42:58.794Z,40.10
2023-01-19T00:45:26.559Z,28.30
2023-01-19T00:48:02.929Z,31.40
2023-01-19T00:50:31.115Z,33.70
2023-01-19T00:52:58.456Z,30.90
2023-01-19T00:55:25.678Z,34.30
2023-01-19T00:57:52.603Z,26.30
2023-01-19T01:00:20.181Z,35.30
2023-01-19T01:02:48.580Z,32.70
2023-01-19T01:05:16.324Z,37.70
2023-01-19T01:07:45.587Z,31.50
2023-01-19T01:10:14.363Z,30.80
2023-01-19T01:12:42.036Z,32.50
2023-01-19T01:15:23.725Z,30.00
2023-01-19T01:17:53.195Z,29.10
2023-01-19T01:20:22.649Z,33.20
2023-01-19T01:22:51.613Z,27.10
2023-01-19T01:25:20.487Z,31.10
2023-01-19T01:27:47.821Z,22.90
2023-01-19T01:30:15.622Z,24.50
2023-01-19T01:32:43.075Z,33.80
2023-01-19T01:35:10.702Z,29.30
2023-01-19T01:37:38.342Z,22.90
2023-01-19T01:40:06.754Z,22.70
2023-01-19T01:42:35.639Z,26.60
2023-01-19T01:45:06.272Z,32.30
2023-01-19T01:47:44.979Z,28.10
2023-01-19T01:50:23.050Z,33.30
2023-01-19T01:53:07.606Z,25.90
2023-01-19T01:55:41.715Z,32.70
2023-01-19T01:58:09.122Z,31.00
2023-01-19T02:00:55.527Z,28.60
2023-01-19T02:03:23.191Z,28.40
2023-01-19T02:05:50.713Z,32.60
2023-01-19T02:08:39.477Z,26.00
2023-01-19T02:11:25.115Z,28.50
2023-01-19T02:13:52.469Z,32.90
2023-01-19T02:16:20.031Z,24.70
2023-01-19T02:18:47.701Z,27.10
2023-01-19T02:21:23.395Z,22.60
2023-01-19T02:23:57.475Z,36.70
2023-01-19T02:26:26.231Z,30.60
2023-01-19T02:29:04.557Z,30.60
2023-01-19T02:31:32.033Z,22.30
2023-01-19T02:34:00.411Z,23.10
2023-01-19T02:36:52.752Z,28.00
2023-01-19T02:39:31.200Z,26.30
2023-01-19T02:42:03.880Z,22.50
2023-01-19T02:44:31.350Z,34.80
2023-01-19T02:46:58.840Z,32.10
2023-01-19T02:49:28.324Z,28.80
2023-01-19T02:51:55.903Z,23.40
2023-01-19T02:54:46.146Z,31.20
2023-01-19T02:57:24.547Z,28.80
2023-01-19T03:00:10.982Z,25.90
2023-01-19T03:02:41.711Z,30.00
2023-01-19T03:05:25.384Z,30.70
2023-01-19T03:08:24.388Z,28.70
2023-01-19T03:11:11.398Z,25.80
2023-01-19T03:14:00.972Z,26.80
2023-01-19T03:16:38.412Z,29.10
2023-01-19T03:19:10.402Z,32.50
2023-01-19T03:21:38.175Z,39.80
2023-01-19T03:24:06.933Z,35.10
2023-01-19T03:26:39.529Z,30.00
2023-01-19T03:29:07.122Z,26.60
2023-01-19T03:31:34.553Z,27.80
2023-01-19T03:34:07.379Z,21.60
2023-01-19T03:36:42.750Z,36.90
2023-01-19T03:39:10.180Z,28.40
2023-01-19T03:41:37.855Z,43.60
2023-01-19T03:44:06.582Z,25.60
2023-01-19T03:46:34.032Z,27.50
2023-01-19T03:49:01.533Z,29.00
2023-01-19T03:51:29.051Z,26.30
2023-01-19T03:53:56.243Z,32.90
2023-01-19T03:56:24.980Z,24.70
2023-01-19T03:58:51.876Z,29.20
2023-01-19T04:01:23.201Z,26.10
2023-01-19T04:03:51.302Z,27.60
2023-01-19T04:06:19.581Z,32.50
2023-01-19T04:08:50.793Z,27.80
2023-01-19T04:11:18.438Z,23.00
2023-01-19T04:13:45.828Z,28.10
2023-01-19T04:16:13.441Z,29.20
2023-01-19T04:18:40.854Z,26.60
2023-01-19T04:21:08.357Z,26.40
2023-01-19T04:23:35.967Z,22.20
2023-01-19T04:26:05.634Z,28.70
2023-01-19T04:28:33.255Z,25.70
2023-01-19T04:31:01.318Z,24.90
2023-01-19T04:33:29.075Z,24.60
2023-01-19T04:35:56.610Z,22.50
2023-01-19T04:38:25.152Z,19.80
2023-01-19T04:40:53.160Z,24.70
2023-01-19T04:43:21.463Z,23.30
2023-01-19T04:45:49.456Z,22.30
2023-01-19T04:48:18.704Z,26.10
2023-01-19T04:50:46.891Z,22.10
2023-01-19T04:53:14.823Z,22.80
2023-01-19T04:55:42.460Z,24.40
2023-01-19T04:58:10.159Z,20.70
2023-01-19T05:00:37.653Z,24.30
2023-01-19T05:03:05.508Z,22.80
2023-01-19T05:05:33.641Z,21.50
2023-01-19T05:08:01.048Z,19.90
2023-01-19T05:10:28.748Z,20.00
2023-01-19T05:12:56.458Z,20.80
2023-01-19T05:15:24.095Z,23.00
2023-01-19T05:17:51.644Z,21.90
2023-01-19T05:20:19.334Z,22.70
2023-01-19T05:22:50.738Z,19.40
2023-01-19T05:25:18.161Z,21.80
2023-01-19T08:47:33.159Z,13.90
2023-01-19T08:50:00.622Z,23.90
2023-01-19T08:52:29.630Z,13.70
2023-01-19T08:54:56.990Z,23.40
2023-01-19T08:57:24.637Z,15.30
2023-01-19T08:59:52.376Z,18.90
2023-01-19T09:02:19.963Z,12.80
2023-01-19T09:04:47.685Z,15.70
2023-01-19T09:07:15.245Z,15.90
2023-01-19T09:09:43.733Z,15.50
2023-01-19T09:12:11.180Z,15.60
2023-01-19T09:14:38.728Z,17.90
2023-01-19T09:17:06.786Z,22.40
2023-01-19T09:19:35.138Z,20.10
2023-01-19T09:22:02.727Z,18.30
2023-01-19T09:24:30.371Z,12.60
2023-01-19T09:26:57.797Z,13.10
2023-01-19T09:29:25.179Z,12.20
2023-01-19T09:31:52.596Z,11.60
2023-01-19T09:34:20.873Z,12.00
2023-01-19T09:36:48.364Z,23.30
2023-01-19T09:39:16.306Z,16.70
2023-01-19T09:41:47.067Z,16.30
2023-01-19T09:44:20.373Z,23.90
2023-01-19T09:46:49.115Z,13.30
2023-01-19T09:49:20.283Z,16.40
2023-01-19T09:51:48.873Z,16.40
2023-01-19T09:54:24.526Z,20.50
2023-01-19T09:56:53.448Z,14.90
2023-01-19T09:59:29.483Z,16.00
2023-01-19T10:02:18.753Z,19.30
2023-01-19T10:05:03.196Z,12.10
2023-01-19T10:07:44.310Z,22.00
2023-01-19T10:10:25.213Z,15.10
2023-01-19T10:13:10.813Z,20.00
2023-01-19T10:15:45.349Z,13.30
2023-01-19T10:18:18.030Z,20.00
2023-01-19T10:20:51.475Z,15.80
2023-01-19T10:23:21.948Z,16.00
2023-01-19T10:25:49.887Z,21.10
2023-01-19T10:28:17.333Z,13.70
2023-01-19T10:30:44.999Z,20.10
2023-01-19T10:33:13.926Z,12.10
2023-01-19T10:35:41.187Z,15.00
2023-01-19T10:38:09.881Z,16.90
2023-01-19T10:40:48.078Z,20.60
2023-01-19T10:43:35.051Z,16.40
2023-01-19T10:46:06.509Z,22.60
2023-01-19T10:48:39.392Z,16.30
2023-01-19T10:51:06.860Z,13.70
2023-01-19T10:53:34.421Z,11.90
2023-01-19T10:56:12.107Z,15.40
2023-01-19T10:58:40.762Z,13.40
2023-01-19T11:01:30.148Z,14.60
2023-01-19T11:04:05.828Z,11.30
2023-01-19T11:06:35.458Z,15.00
2023-01-19T11:09:16.746Z,16.30
2023-01-19T11:11:49.753Z,16.10
2023-01-19T11:14:24.656Z,14.30
2023-01-19T11:16:55.135Z,16.90
2023-01-19T11:19:31.751Z,14.00
2023-01-19T11:22:33.300Z,14.60
2023-01-19T11:25:02.306Z,15.00
2023-01-19T11:27:30.359Z,11.30
2023-01-19T11:30:19.384Z,13.70
2023-01-19T11:32:46.803Z,7.90
2023-01-19T11:35:37.811Z,10.00
2023-01-19T11:38:18.545Z,12.00
2023-01-19T11:40:56.818Z,10.50
2023-01-19T11:43:36.642Z,14.70
2023-01-19T11:46:15.185Z,18.00
2023-01-19T11:48:57.115Z,14.20
2023-01-19T11:51:25.703Z,17.90
2023-01-19T11:53:53.863Z,10.80
2023-01-19T11:56:26.366Z,18.50
2023-01-19T11:58:53.761Z,16.30
2023-01-19T12:01:32.867Z,16.30
2023-01-19T12:04:32.293Z,14.40
2023-01-19T12:07:00.615Z,9.60
2023-01-19T12:09:36.465Z,13.20
2023-01-19T12:12:06.293Z,8.20
2023-01-19T12:14:59.103Z,14.50
2023-01-19T12:19:59.872Z,17.70
2023-01-19T12:22:28.926Z,12.90
2023-01-19T12:25:01.565Z,15.20
2023-01-19T12:27:43.674Z,13.70
2023-01-19T12:30:17.717Z,13.30
2023-01-19T12:32:45.242Z,11.40
2023-01-19T12:35:50.739Z,11.40
2023-01-19T12:39:10.583Z,13.10
2023-01-19T12:41:38.983Z,16.50
2023-01-19T12:44:12.556Z,10.90
2023-01-19T12:46:50.820Z,6.90
2023-01-19T12:49:23.029Z,16.70
2023-01-19T12:51:51.961Z,10.90
2023-01-19T12:54:31.822Z,12.30
2023-01-19T12:57:01.920Z,11.50
2023-01-19T12:59:29.563Z,12.70
2023-01-19T13:02:22.482Z,15.30
2023-01-19T13:08:17.119Z,17.80
2023-01-19T13:10:56.497Z,8.60
2023-01-19T13:13:25.923Z,11.20
2023-01-19T13:15:55.900Z,11.80
2023-01-19T13:18:24.618Z,10.90
2023-01-19T13:21:06.094Z,15.90
2023-01-19T13:23:51.842Z,19.40
2023-01-19T13:26:21.096Z,10.20
2023-01-19T13:29:17.566Z,8.80
2023-01-19T13:31:47.588Z,16.30
2023-01-19T13:34:26.543Z,16.80
2023-01-19T13:36:56.906Z,13.30
2023-01-19T13:39:38.623Z,16.00
2023-01-19T13:42:13.465Z,10.60
2023-01-19T13:44:52.855Z,19.00
2023-01-19T13:47:44.461Z,15.40
2023-01-19T13:50:26.655Z,14.00
2023-01-19T13:52:55.870Z,13.90
2023-01-19T13:55:24.887Z,16.50
2023-01-19T13:57:57.390Z,15.60
2023-01-19T14:00:30.555Z,24.30
2023-01-19T14:03:19.585Z,14.50
2023-01-19T14:05:50.528Z,30.90
2023-01-19T14:08:18.710Z,15.90
2023-01-19T14:10:56.840Z,16.70
2023-01-19T14:13:34.948Z,17.90
2023-01-19T14:16:08.336Z,18.10
2023-01-19T14:18:36.200Z,13.70
2023-01-19T14:21:07.993Z,17.20
2023-01-19T14:23:49.473Z,19.30
2023-01-19T14:26:47.261Z,21.80
2023-01-19T14:29:32.866Z,17.70
2023-01-19T14:32:01.475Z,16.90
2023-01-19T14:35:04.537Z,17.20
2023-01-19T14:37:36.634Z,24.10
2023-01-19T14:40:15.147Z,14.80
2023-01-19T14:42:50.443Z,17.60
2023-01-19T14:45:31.542Z,17.90
2023-01-19T14:48:01.059Z,15.80
2023-01-19T14:50:37.135Z,15.80
2023-01-19T14:53:28.829Z,12.90
2023-01-19T14:55:59.501Z,16.80
2023-01-19T14:58:28.079Z,15.10
2023-01-19T15:00:56.341Z,16.00
2023-01-19T15:03:34.893Z,30.90
2023-01-19T15:06:13.958Z,19.60
2023-01-19T15:08:41.458Z,26.60
2023-01-19T15:11:16.057Z,15.40
2023-01-19T15:13:43.925Z,17.70
2023-01-19T15:16:11.490Z,15.40
2023-01-19T15:18:39.189Z,16.20
2023-01-19T15:21:06.802Z,16.00
2023-01-19T15:23:34.333Z,17.70
2023-01-19T15:26:04.490Z,15.10
2023-01-19T15:28:32.037Z,18.00
2023-01-19T15:31:00.051Z,17.10
2023-01-19T15:33:30.806Z,16.20
2023-01-19T15:35:58.443Z,21.40
2023-01-19T15:38:26.790Z,16.20
2023-01-19T15:40:54.331Z,19.10
2023-01-19T15:43:21.880Z,22.40
2023-01-19T15:46:02.689Z,26.80
2023-01-19T15:48:30.145Z,26.90
2023-01-19T15:50:58.032Z,33.90
2023-01-19T15:53:27.453Z,32.10
2023-01-19T15:55:57.040Z,24.10
2023-01-19T15:58:24.787Z,19.10
2023-01-19T16:00:59.020Z,27.30
2023-01-19T16:03:26.604Z,32.40
2023-01-19T16:05:54.363Z,25.30
2023-01-19T16:08:22.224Z,28.00
2023-01-19T16:10:49.611Z,23.70
2023-01-19T16:13:17.016Z,24.40
2023-01-19T16:15:44.540Z,49.10
2023-01-19T16:18:14.630Z,25.50
2023-01-19T16:20:42.356Z,27.20
2023-01-19T16:23:16.767Z,26.70
2023-01-19T16:25:44.528Z,27.40
2023-01-19T16:28:12.193Z,25.20
2023-01-19T16:30:39.754Z,28.60
2023-01-19T16:33:08.601Z,20.40
2023-01-19T16:35:36.056Z,23.20
2023-01-19T16:38:03.582Z,21.60
2023-01-19T16:40:31.228Z,23.70
2023-01-19T16:42:58.660Z,27.80
2023-01-19T16:45:26.257Z,28.80
2023-01-19T16:47:53.656Z,23.70
2023-01-19T16:50:21.267Z,24.00
2023-01-19T16:52:50.942Z,26.50
2023-01-19T16:55:18.639Z,35.00
2023-01-19T16:57:46.200Z,24.10
2023-01-19T17:00:14.189Z,26.40
2023-01-19T17:02:43.453Z,24.80
2023-01-19T17:05:11.212Z,25.00
2023-01-19T17:07:39.068Z,28.00
2023-01-19T17:10:07.669Z,28.50
2023-01-19T17:12:35.102Z,29.70
2023-01-19T17:15:02.611Z,28.80
2023-01-19T17:17:30.381Z,24.60
2023-01-19T17:20:00.268Z,30.10
2023-01-19T17:22:27.813Z,27.10
2023-01-19T17:24:55.517Z,27.50
2023-01-19T17:27:23.133Z,23.80
2023-01-19T17:29:50.588Z,24.00
2023-01-19T17:32:18.039Z,24.70
2023-01-19T17:34:47.173Z,28.90
2023-01-19T17:37:14.733Z,27.10
2023-01-19T17:39:42.269Z,31.90
2023-01-19T17:42:10.415Z,24.60
2023-01-19T17:44:38.077Z,24.20
2023-01-19T17:47:05.677Z,26.10
2023-01-19T17:49:33.643Z,31.30
2023-01-19T17:52:01.323Z,25.10
2023-01-19T17:54:28.865Z,26.30
2023-01-19T17:56:56.593Z,26.30
2023-01-19T17:59:23.998Z,27.80
2023-01-19T18:01:51.631Z,28.70
2023-01-19T18:04:19.293Z,26.10
2023-01-19T18:06:47.636Z,19.40
2023-01-19T18:09:15.190Z,26.90
2023-01-19T18:11:43.317Z,31.60
2023-01-19T18:14:10.849Z,28.50
2023-01-19T18:16:38.632Z,30.10
2023-01-19T18:19:06.119Z,31.20
2023-01-19T18:21:33.847Z,30.10
2023-01-19T18:24:03.702Z,28.60
2023-01-19T18:26:32.174Z,29.50
2023-01-19T18:29:00.762Z,29.70
2023-01-19T18:31:28.472Z,29.80
2023-01-19T18:33:56.414Z,96.50
2023-01-19T18:36:24.130Z,31.70
2023-01-19T18:38:51.766Z,29.00
2023-01-19T18:41:20.550Z,26.40
2023-01-19T18:43:48.759Z,27.60
2023-01-19T18:46:16.881Z,31.90
2023-01-19T18:48:44.513Z,28.10
2023-01-19T18:51:13.770Z,26.40
2023-01-19T18:53:41.315Z,29.80
2023-01-19T18:56:10.546Z,30.00
2023-01-19T18:58:38.499Z,30.60
2023-01-19T19:01:17.528Z,28.50
2023-01-19T19:03:45.309Z,31.70
2023-01-19T19:06:13.581Z,37.20
2023-01-19T19:08:41.381Z,26.50
2023-01-19T19:11:09.137Z,31.60
2023-01-19T19:13:36.992Z,36.20
2023-01-19T19:16:05.966Z,36.00
2023-01-19T19:18:37.528Z,26.00
2023-01-19T19:21:07.406Z,35.00
2023-01-19T19:23:35.166Z,27.50
2023-01-19T19:26:07.193Z,30.80
2023-01-19T19:28:36.780Z,28.10
2023-01-19T19:31:12.475Z,32.40
2023-01-19T19:33:40.325Z,30.80
2023-01-19T19:36:08.313Z,28.20
2023-01-19T19:38:37.180Z,26.80
2023-01-19T19:41:06.220Z,31.00
2023-01-19T19:43:34.296Z,30.90
2023-01-19T19:46:09.863Z,33.20
2023-01-19T19:48:39.297Z,28.60
2023-01-19T19:51:17.958Z,35.40
2023-01-19T19:53:48.414Z,30.60
2023-01-19T19:56:20.299Z,30.00
2023-01-19T19:58:48.086Z,32.40
2023-01-19T20:01:17.509Z,32.70
2023-01-19T20:03:45.709Z,33.90
2023-01-19T20:06:18.371Z,33.90
2023-01-19T20:08:45.810Z,29.50
2023-01-19T20:11:15.604Z,35.70
2023-01-19T20:13:43.900Z,34.30
2023-01-19T20:16:14.164Z,49.60
2023-01-19T20:18:43.241Z,36.40
2023-01-19T20:21:19.066Z,28.90
2023-01-19T20:23:47.071Z,35.90
2023-01-19T20:26:16.073Z,33.50
2023-01-19T20:28:43.808Z,34.90
2023-01-19T20:31:15.797Z,35.10
2023-01-19T20:33:43.893Z,34.80
2023-01-19T20:36:12.073Z,33.40
2023-01-19T20:38:40.090Z,38.90
2023-01-19T20:41:08.237Z,38.80
2023-01-19T20:43:36.618Z,35.70
2023-01-19T20:46:04.593Z,35.70
2023-01-19T20:48:32.181Z,35.10
2023-01-19T20:51:01.218Z,36.50
2023-01-19T20:53:29.081Z,37.30
2023-01-19T20:55:56.728Z,36.30
2023-01-19T20:58:25.192Z,39.10
2023-01-19T21:00:52.687Z,41.80
2023-01-19T21:03:20.569Z,38.70
2023-01-19T21:05:51.199Z,40.00
2023-01-19T21:08:18.717Z,42.80
2023-01-19T21:10:46.387Z,38.00
2023-01-19T21:13:14.473Z,40.40
2023-01-19T21:15:42.040Z,48.70
2023-01-19T21:18:09.758Z,36.80
2023-01-19T21:20:37.935Z,46.60
2023-01-19T21:23:05.618Z,40.60
2023-01-19T21:25:34.192Z,37.00
2023-01-19T21:28:02.149Z,44.10
2023-01-19T21:30:30.154Z,43.50
2023-01-19T21:32:57.972Z,39.90
2023-01-19T21:35:25.674Z,41.60
2023-01-19T21:37:53.443Z,45.90
2023-01-19T21:40:21.082Z,40.90
2023-01-19T21:42:48.708Z,50.40
2023-01-19T21:45:16.335Z,40.10
2023-01-19T21:47:43.947Z,45.00
2023-01-19T21:50:11.608Z,40.60
2023-01-19T21:52:41.976Z,40.10
2023-01-19T21:55:09.711Z,35.60
2023-01-19T21:57:37.248Z,43.30
2023-01-19T22:00:06.683Z,40.20
2023-01-19T22:02:38.837Z,44.10
2023-01-19T22:05:07.092Z,42.60
2023-01-19T22:07:34.316Z,52.10
2023-01-19T22:10:01.821Z,47.60
2023-01-19T22:12:29.456Z,43.20
2023-01-19T22:14:56.837Z,43.40
2023-01-19T22:17:24.249Z,42.50
2023-01-19T22:19:51.663Z,44.90
2023-01-19T22:22:19.060Z,41.10
2023-01-19T22:24:50.068Z,48.70
2023-01-19T22:27:17.468Z,43.90
2023-01-19T22:29:44.864Z,40.00
2023-01-19T22:32:12.374Z,41.50
2023-01-19T22:34:39.737Z,42.70
2023-01-19T22:37:07.123Z,41.20
2023-01-19T22:39:34.781Z,46.10
2023-01-19T22:42:02.309Z,44.80
2023-01-19T22:44:29.688Z,53.40
2023-01-19T22:46:57.244Z,50.20
2023-01-19T22:49:24.566Z,46.00
2023-01-19T22:51:54.228Z,46.90
2023-01-19T22:54:23.204Z,46.10
2023-01-19T22:56:50.733Z,41.10
2023-01-19T22:59:18.204Z,42.20
2023-01-19T23:01:45.965Z,44.80
2023-01-19T23:04:15.115Z,47.50
2023-01-19T23:06:42.988Z,41.40
2023-01-19T23:09:12.118Z,41.10
2023-01-19T23:11:41.097Z,38.90
2023-01-19T23:14:10.039Z,36.20
2023-01-19T23:16:37.547Z,39.80
2023-01-19T23:19:05.183Z,39.80
2023-01-19T23:21:32.779Z,42.10
2023-01-19T23:24:01.662Z,46.50
2023-01-19T23:26:31.023Z,41.40
2023-01-19T23:29:01.390Z,46.40
2023-01-19T23:31:30.918Z,41.10
2023-01-19T23:34:02.732Z,37.90
2023-01-19T23:36:31.502Z,38.60
2023-01-19T23:39:00.277Z,37.10
2023-01-19T23:41:30.947Z,40.10
2023-01-19T23:43:58.448Z,44.00
2023-01-19T23:46:25.965Z,39.90
2023-01-19T23:48:53.630Z,41.20
2023-01-19T23:51:25.504Z,43.00
2023-01-19T23:53:52.863Z,41.00
2023-01-19T23:56:34.649Z,49.60
2023-01-19T23:59:04.409Z,38.60
